Terminal Aerodrome Forecast
Issued by NWS

Home | Current Version | Previous Version | Text Only | Print | Product List | Glossary On
Versions: 1 2 3 4 5 6 7 8 9 10 11 12 13 14 15
000
FTUS44 KBMX 250928 AAA
TAFANB
TAF AMD
KANB 250928Z 2509/2606 10006KT P6SM SCT015 OVC060
      TEMPO 2511/2513 SCT007 OVC015
     FM251700 14006KT 5SM SHRA VCTS SCT020 BKN040CB=

USA.gov is the U.S. government's official web portal to all federal, state and local government web resources and services.